Terminal Aerodrome Forecast
Issued by NWS Charleston, SC

Home | Current Version | Previous Version | Text Only | Print | Product List | Glossary On
Versions: 1 2 3 4 5 6 7 8 9 10 11 12 13 14 15 16 17 18 19 20 21 22 23 24 25 26 27 28 29 30 31 32
000
FTUS42 KCHS 182328
TAFCHS
TAF
KCHS 182328Z 1900/1924 22005KT P6SM SCT020 SCT040
     FM190900 27003KT P6SM SCT200
     FM191400 27008KT P6SM SCT020 BKN100
     FM191800 24010KT P6SM SCT050=

USA.gov is the U.S. government's official web portal to all federal, state and local government web resources and services.